sensor_id;sensor_type;location;lat;lon;timestamp;pressure;altitude;pressure_sealevel;temperature;humidity
43039;BME280;62252;50.668;19.530;2022-08-25T00:02:04;98377.09;;;18.23;100.00
43039;BME280;62252;50.668;19.530;2022-08-25T00:04:33;98373.44;;;18.24;100.00
43039;BME280;62252;50.668;19.530;2022-08-25T00:07:01;98376.97;;;18.25;100.00
43039;BME280;62252;50.668;19.530;2022-08-25T00:09:29;98373.88;;;18.29;100.00
43039;BME280;62252;50.668;19.530;2022-08-25T00:11:58;98373.88;;;18.29;100.00
43039;BME280;62252;50.668;19.530;2022-08-25T00:14:29;98368.56;;;18.29;100.00
43039;BME280;62252;50.668;19.530;2022-08-25T00:16:57;98370.09;;;18.32;100.00
43039;BME280;62252;50.668;19.530;2022-08-25T00:19:27;98368.00;;;18.35;100.00
43039;BME280;62252;50.668;19.530;2022-08-25T00:21:57;98368.25;;;18.23;100.00
43039;BME280;62252;50.668;19.530;2022-08-25T00:24:25;98368.94;;;18.15;100.00
43039;BME280;62252;50.668;19.530;2022-08-25T00:26:54;98370.91;;;18.13;100.00
43039;BME280;62252;50.668;19.530;2022-08-25T00:29:24;98377.34;;;18.11;100.00
43039;BME280;62252;50.668;19.530;2022-08-25T00:31:53;98373.41;;;18.05;100.00
43039;BME280;62252;50.668;19.530;2022-08-25T00:34:25;98380.72;;;18.03;100.00
43039;BME280;62252;50.668;19.530;2022-08-25T00:36:53;98382.66;;;18.01;100.00
43039;BME280;62252;50.668;19.530;2022-08-25T00:39:22;98384.88;;;17.96;100.00
43039;BME280;62252;50.668;19.530;2022-08-25T00:41:51;98382.78;;;18.00;100.00
43039;BME280;62252;50.668;19.530;2022-08-25T00:44:22;98375.91;;;17.97;100.00
43039;BME280;62252;50.668;19.530;2022-08-25T00:46:53;98375.38;;;18.03;100.00
43039;BME280;62252;50.668;19.530;2022-08-25T00:49:24;98381.66;;;18.02;100.00
43039;BME280;62252;50.668;19.530;2022-08-25T00:51:57;98378.34;;;18.10;100.00
43039;BME280;62252;50.668;19.530;2022-08-25T00:54:27;98381.00;;;18.19;100.00
43039;BME280;62252;50.668;19.530;2022-08-25T00:56:55;98388.59;;;18.14;100.00
43039;BME280;62252;50.668;19.530;2022-08-25T00:59:25;98381.84;;;18.10;100.00
43039;BME280;62252;50.668;19.530;2022-08-25T01:01:55;98384.78;;;18.07;100.00
43039;BME280;62252;50.668;19.530;2022-08-25T01:04:23;98387.72;;;18.04;100.00
43039;BME280;62252;50.668;19.530;2022-08-25T01:06:51;98392.91;;;18.06;100.00
43039;BME280;62252;50.668;19.530;2022-08-25T01:09:20;98393.88;;;18.05;100.00
43039;BME280;62252;50.668;19.530;2022-08-25T01:11:48;98392.44;;;18.01;100.00
43039;BME280;62252;50.668;19.530;2022-08-25T01:14:18;98392.03;;;18.05;100.00
43039;BME280;62252;50.668;19.530;2022-08-25T01:16:46;98386.59;;;18.16;100.00
43039;BME280;62252;50.668;19.530;2022-08-25T01:19:15;98385.34;;;18.20;100.00
43039;BME280;62252;50.668;19.530;2022-08-25T01:21:46;98390.00;;;18.18;100.00
43039;BME280;62252;50.668;19.530;2022-08-25T01:24:19;98381.56;;;18.13;100.00
43039;BME280;62252;50.668;19.530;2022-08-25T01:26:49;98382.94;;;18.08;100.00
43039;BME280;62252;50.668;19.530;2022-08-25T01:29:17;98391.50;;;18.02;100.00
43039;BME280;62252;50.668;19.530;2022-08-25T01:31:48;98380.84;;;18.02;100.00
43039;BME280;62252;50.668;19.530;2022-08-25T01:34:17;98373.41;;;18.05;100.00
43039;BME280;62252;50.668;19.530;2022-08-25T01:36:47;98377.06;;;18.14;100.00
43039;BME280;62252;50.668;19.530;2022-08-25T01:39:15;98375.69;;;18.19;100.00
43039;BME280;62252;50.668;19.530;2022-08-25T01:41:49;98380.28;;;18.17;100.00
43039;BME280;62252;50.668;19.530;2022-08-25T01:44:20;98375.97;;;18.16;100.00
43039;BME280;62252;50.668;19.530;2022-08-25T01:46:48;98377.09;;;18.23;100.00
43039;BME280;62252;50.668;19.530;2022-08-25T01:49:15;98377.50;;;18.28;100.00
43039;BME280;62252;50.668;19.530;2022-08-25T01:51:48;98370.25;;;18.30;100.00
43039;BME280;62252;50.668;19.530;2022-08-25T01:54:18;98377.09;;;18.23;100.00
43039;BME280;62252;50.668;19.530;2022-08-25T01:56:45;98370.50;;;18.27;100.00
43039;BME280;62252;50.668;19.530;2022-08-25T01:59:14;98367.72;;;18.29;100.00
43039;BME280;62252;50.668;19.530;2022-08-25T02:01:42;98368.97;;;18.25;100.00
43039;BME280;62252;50.668;19.530;2022-08-25T02:04:09;98381.03;;;18.29;100.00
43039;BME280;62252;50.668;19.530;2022-08-25T02:06:37;98376.81;;;18.26;100.00
43039;BME280;62252;50.668;19.530;2022-08-25T02:09:09;98374.28;;;18.15;100.00
43039;BME280;62252;50.668;19.530;2022-08-25T02:11:39;98373.84;;;18.10;100.00
43039;BME280;62252;50.668;19.530;2022-08-25T02:14:08;98368.94;;;18.06;100.00
43039;BME280;62252;50.668;19.530;2022-08-25T02:16:38;98374.66;;;18.01;100.00
43039;BME280;62252;50.668;19.530;2022-08-25T02:19:08;98370.31;;;18.00;100.00
43039;BME280;62252;50.668;19.530;2022-08-25T02:21:36;98377.59;;;17.98;100.00
43039;BME280;62252;50.668;19.530;2022-08-25T02:24:05;98379.44;;;17.98;100.00
43039;BME280;62252;50.668;19.530;2022-08-25T02:26:34;98380.41;;;18.06;100.00
43039;BME280;62252;50.668;19.530;2022-08-25T02:29:03;98368.94;;;18.15;100.00
43039;BME280;62252;50.668;19.530;2022-08-25T02:31:31;98366.03;;;18.18;100.00
43039;BME280;62252;50.668;19.530;2022-08-25T02:33:58;98364.91;;;18.21;100.00
43039;BME280;62252;50.668;19.530;2022-08-25T02:36:27;98356.06;;;18.20;100.00
43039;BME280;62252;50.668;19.530;2022-08-25T02:38:54;98358.69;;;18.11;100.00
43039;BME280;62252;50.668;19.530;2022-08-25T02:41:23;98363.91;;;18.12;100.00
43039;BME280;62252;50.668;19.530;2022-08-25T02:43:52;98355.06;;;18.12;100.00
43039;BME280;62252;50.668;19.530;2022-08-25T02:46:20;98355.75;;;18.04;100.00
43039;BME280;62252;50.668;19.530;2022-08-25T02:48:47;98354.34;;;18.00;100.00
43039;BME280;62252;50.668;19.530;2022-08-25T02:51:18;98364.53;;;17.95;100.00
43039;BME280;62252;50.668;19.530;2022-08-25T02:53:46;98352.47;;;17.91;100.00
43039;BME280;62252;50.668;19.530;2022-08-25T02:56:17;98348.88;;;17.92;100.00
43039;BME280;62252;50.668;19.530;2022-08-25T02:58:44;98351.22;;;17.95;100.00
43039;BME280;62252;50.668;19.530;2022-08-25T03:01:14;98357.38;;;17.86;100.00
43039;BME280;62252;50.668;19.530;2022-08-25T03:03:44;98348.84;;;17.83;100.00
43039;BME280;62252;50.668;19.530;2022-08-25T03:06:14;98341.00;;;17.81;100.00
43039;BME280;62252;50.668;19.530;2022-08-25T03:08:42;98348.13;;;17.81;100.00
43039;BME280;62252;50.668;19.530;2022-08-25T03:11:10;98345.13;;;17.74;100.00
43039;BME280;62252;50.668;19.530;2022-08-25T03:13:38;98342.47;;;17.74;100.00
43039;BME280;62252;50.668;19.530;2022-08-25T03:16:06;98340.63;;;17.74;100.00
43039;BME280;62252;50.668;19.530;2022-08-25T03:18:36;98340.78;;;17.73;100.00
43039;BME280;62252;50.668;19.530;2022-08-25T03:21:04;98331.84;;;17.74;100.00
43039;BME280;62252;50.668;19.530;2022-08-25T03:23:31;98326.50;;;17.74;100.00
43039;BME280;62252;50.668;19.530;2022-08-25T03:25:59;98323.84;;;17.74;100.00
43039;BME280;62252;50.668;19.530;2022-08-25T03:28:44;98322.59;;;17.78;100.00
43039;BME280;62252;50.668;19.530;2022-08-25T03:31:11;98325.97;;;17.80;100.00
43039;BME280;62252;50.668;19.530;2022-08-25T03:33:41;98326.84;;;17.81;100.00
43039;BME280;62252;50.668;19.530;2022-08-25T03:36:08;98325.25;;;17.78;100.00
43039;BME280;62252;50.668;19.530;2022-08-25T03:38:39;98332.53;;;17.76;100.00
43039;BME280;62252;50.668;19.530;2022-08-25T03:41:13;98325.78;;;17.72;100.00
43039;BME280;62252;50.668;19.530;2022-08-25T03:43:41;98325.50;;;17.65;100.00
43039;BME280;62252;50.668;19.530;2022-08-25T03:46:16;98332.34;;;17.68;100.00
43039;BME280;62252;50.668;19.530;2022-08-25T03:48:45;98329.69;;;17.68;100.00
43039;BME280;62252;50.668;19.530;2022-08-25T03:51:18;98330.69;;;17.67;100.00
43039;BME280;62252;50.668;19.530;2022-08-25T03:53:46;98330.69;;;17.67;100.00
43039;BME280;62252;50.668;19.530;2022-08-25T03:56:14;98334.03;;;17.69;100.00
43039;BME280;62252;50.668;19.530;2022-08-25T03:58:41;98326.63;;;17.73;100.00
43039;BME280;62252;50.668;19.530;2022-08-25T04:01:09;98322.00;;;17.74;100.00
43039;BME280;62252;50.668;19.530;2022-08-25T04:03:36;98327.19;;;17.76;100.00
43039;BME280;62252;50.668;19.530;2022-08-25T04:06:06;98332.38;;;17.78;100.00
43039;BME280;62252;50.668;19.530;2022-08-25T04:08:34;98331.88;;;17.84;100.00
43039;BME280;62252;50.668;19.530;2022-08-25T04:11:05;98332.31;;;17.89;100.00
43039;BME280;62252;50.668;19.530;2022-08-25T04:13:33;98337.09;;;17.95;100.00
43039;BME280;62252;50.668;19.530;2022-08-25T04:16:01;98332.47;;;17.97;100.00
43039;BME280;62252;50.668;19.530;2022-08-25T04:18:28;98333.03;;;18.00;100.00
43039;BME280;62252;50.668;19.530;2022-08-25T04:21:05;98326.47;;;18.04;100.00
43039;BME280;62252;50.668;19.530;2022-08-25T04:23:34;98321.81;;;18.06;100.00
43039;BME280;62252;50.668;19.530;2022-08-25T04:26:07;98326.34;;;18.06;100.00
43039;BME280;62252;50.668;19.530;2022-08-25T04:28:34;98329.81;;;18.06;100.00
43039;BME280;62252;50.668;19.530;2022-08-25T04:31:05;98331.94;;;18.12;100.00
43039;BME280;62252;50.668;19.530;2022-08-25T04:33:33;98332.34;;;18.17;100.00
43039;BME280;62252;50.668;19.530;2022-08-25T04:36:01;98327.75;;;18.19;100.00
43039;BME280;62252;50.668;19.530;2022-08-25T04:38:30;98324.09;;;18.20;100.00
43039;BME280;62252;50.668;19.530;2022-08-25T04:40:58;98329.41;;;18.20;100.00
43039;BME280;62252;50.668;19.530;2022-08-25T04:43:26;98327.75;;;18.19;100.00
43039;BME280;62252;50.668;19.530;2022-08-25T04:45:54;98324.38;;;18.17;100.00
43039;BME280;62252;50.668;19.530;2022-08-25T04:48:22;98320.47;;;18.21;100.00
43039;BME280;62252;50.668;19.530;2022-08-25T04:50:49;98326.06;;;18.28;100.00
43039;BME280;62252;50.668;19.530;2022-08-25T04:53:17;98325.66;;;18.42;100.00
43039;BME280;62252;50.668;19.530;2022-08-25T04:55:47;98327.34;;;18.52;100.00
43039;BME280;62252;50.668;19.530;2022-08-25T04:58:16;98334.22;;;18.55;100.00
43039;BME280;62252;50.668;19.530;2022-08-25T05:00:43;98316.94;;;18.59;100.00
43039;BME280;62252;50.668;19.530;2022-08-25T05:03:11;98332.81;;;18.60;100.00
43039;BME280;62252;50.668;19.530;2022-08-25T05:05:39;98324.56;;;18.63;100.00
43039;BME280;62252;50.668;19.530;2022-08-25T05:08:06;98325.97;;;18.67;100.00
43039;BME280;62252;50.668;19.530;2022-08-25T05:10:39;98322.59;;;18.75;100.00
43039;BME280;62252;50.668;19.530;2022-08-25T05:13:08;98321.19;;;18.80;100.00
43039;BME280;62252;50.668;19.530;2022-08-25T05:15:35;98322.88;;;18.81;100.00
43039;BME280;62252;50.668;19.530;2022-08-25T05:18:18;98316.94;;;18.87;100.00
43039;BME280;62252;50.668;19.530;2022-08-25T05:20:46;98317.63;;;18.99;100.00
43039;BME280;62252;50.668;19.530;2022-08-25T05:23:13;98317.88;;;19.15;100.00
43039;BME280;62252;50.668;19.530;2022-08-25T05:25:41;98322.22;;;19.25;100.00
43039;BME280;62252;50.668;19.530;2022-08-25T05:28:11;98312.03;;;19.38;100.00
43039;BME280;62252;50.668;19.530;2022-08-25T05:30:41;98315.25;;;19.51;100.00
43039;BME280;62252;50.668;19.530;2022-08-25T05:33:10;98309.03;;;19.60;100.00
43039;BME280;62252;50.668;19.530;2022-08-25T05:35:38;98309.75;;;19.80;100.00
43039;BME280;62252;50.668;19.530;2022-08-25T05:38:06;98307.13;;;19.97;100.00
43039;BME280;62252;50.668;19.530;2022-08-25T05:40:33;98310.94;;;19.95;100.00
43039;BME280;62252;50.668;19.530;2022-08-25T05:43:01;98313.16;;;19.99;100.00
43039;BME280;62252;50.668;19.530;2022-08-25T05:45:30;98320.63;;;20.23;100.00
43039;BME280;62252;50.668;19.530;2022-08-25T05:47:57;98314.91;;;20.35;100.00
43039;BME280;62252;50.668;19.530;2022-08-25T05:50:25;98306.91;;;20.35;100.00
43039;BME280;62252;50.668;19.530;2022-08-25T05:52:52;98310.94;;;20.39;100.00
43039;BME280;62252;50.668;19.530;2022-08-25T05:55:20;98313.47;;;20.41;100.00
43039;BME280;62252;50.668;19.530;2022-08-25T05:57:47;98316.97;;;20.41;100.00
43039;BME280;62252;50.668;19.530;2022-08-25T06:00:15;98319.47;;;20.43;100.00
43039;BME280;62252;50.668;19.530;2022-08-25T06:02:45;98314.69;;;20.46;100.00
43039;BME280;62252;50.668;19.530;2022-08-25T06:05:15;98315.97;;;20.42;100.00
43039;BME280;62252;50.668;19.530;2022-08-25T06:07:44;98311.31;;;20.44;100.00
43039;BME280;62252;50.668;19.530;2022-08-25T06:10:12;98319.19;;;20.46;100.00
43039;BME280;62252;50.668;19.530;2022-08-25T06:15:58;98321.41;;;20.50;100.00
43039;BME280;62252;50.668;19.530;2022-08-25T06:18:27;98320.56;;;20.50;100.00
43039;BME280;62252;50.668;19.530;2022-08-25T06:20:54;98324.44;;;20.55;100.00
43039;BME280;62252;50.668;19.530;2022-08-25T06:23:22;98320.19;;;20.62;100.00
